ADDS METAR Data

Data at: 0512 UTC 19 Jan 2018

METAR for:CYZX (Greenwood (Mil), NS, CN)
Text:CYZX 190500Z 00000KT 15SM FEW025 M08/M10 A2980 RMK SC2 WNDY HILL UNAVBL SLP093
Temperature: -8.0°C ( 18°F)
Dewpoint:-10.0°C ( 14°F) [RH = 85%]
Pressure (altimeter):29.80 inches Hg (1009.2 mb) [Sea level pressure: 1009.3 mb]
Winds:calm
Visibility: 15 sm ( 24 km)
Ceiling:at least 12,000 feet AGL
Clouds: few clouds at 2500 feet AGL